Hlavní strana
METAR-TAF:

METAR-TAF

Letiště :

Salvador, Salvador

zeměpisná šířka: 13-26N, zeměpisná délka: 089-03W, výška: 25 m

Aktuální stav počasí

Zpráva byla vytvořena před 36 minutami, v 17:50 UTC
Severní vítr 8 kt, proměnlivý mezi severozápadním a severoseverovýchodním
Teplota 34°C
Vlhkost vzduchu 39%
Tlak 1009 hPa
Viditelnost 10 km a více
Žádná oblačnost pod 1500 m, nevyskytují se cumulonimby.

METAR: MSLP 211750Z 36008KT 310V030 CAVOK 34/18 Q1009 A2980 NOSIG

Čas: 12:26 (18:26 UTC)

Předpověď počasí

Zpráva byla vytvořena před 3 hodinami a 1 minutami, v 15:25 UTC
Předpověď platná od 21 v 18 UTC do 22 v 18 UTC
Jihozápadní vítr 10 kt
Viditelnost 10 km a více
Polojasno ve výšce 7000 ft
Od 22 v 0000 UTC
vítr z různých směrů 3 kt
Viditelnost 10 km a více
Žádná oblačnost pod 1500 m, nevyskytují se cumulonimby.
Od 22 v 0500 UTC
Severovýchodní vítr 7 kt

TAF: MSLP 211525Z 2118/2218 23010KT 9999 SCT070 TX33/2118Z TN24/2210Z FM220000 VRB03KT CAVOK FM220500 04007KT

Stav a předpovědi počasí z více než 4 000 letišť (zprávy METAR a TAF).

Červené a žluté tečky na mapě představují dostupné meteorologické stanice.

Když kurzor umístíte na tečku, zobrazí se název stanice.

Pak kliknutím zobrazíte stav a předpověď počasí.

Chcete-li změnit mapu, kliknutím na zelené tlačítko se znaménkem +mapu přiblížíte, kliknutím na zelené tlačítko se znaménkem – mapu oddálíte a kliknutím na zelené šipky přejdete na sousední mapy.


METAR-TAF: